Time;durP1;ratioP1;P1;durP2;ratioP2;P2;SDS_P1;SDS_P2;PMS_P1;PMS_P2;Temp;Humidity;BMP_temperature;BMP_pressure;BME280_temperature;BME280_humidity;BME280_pressure;Samples;Min_cycle;Max_cycle;Signal;HPM_P1;HPM_P2
2022/01/08 00:01:30;;;;;;;4.25;2.08;;;3.00;99.90;;;;;;5032587;28;20029;-39
2022/01/08 00:03:56;;;;;;;3.95;2.42;;;3.00;99.90;;;;;;5030303;28;20028;-39
2022/01/08 00:06:21;;;;;;;4.43;1.83;;;3.00;99.90;;;;;;5032700;28;20048;-74
2022/01/08 00:08:48;;;;;;;10.80;2.45;;;3.00;99.90;;;;;;5032669;28;20037;-39
2022/01/08 00:11:18;;;;;;;2.95;1.80;;;3.00;99.90;;;;;;5031321;28;20053;-40
2022/01/08 00:13:44;;;;;;;3.25;2.30;;;2.90;99.90;;;;;;5026887;28;20032;-39
2022/01/08 00:16:09;;;;;;;8.65;2.17;;;2.90;99.90;;;;;;5027331;28;20025;-38
2022/01/08 00:18:35;;;;;;;3.72;1.50;;;2.90;99.90;;;;;;5024797;28;20030;-37
2022/01/08 00:21:01;;;;;;;9.68;3.35;;;2.80;99.90;;;;;;5024428;28;20046;-39
2022/01/08 00:23:27;;;;;;;5.43;2.30;;;2.80;99.90;;;;;;5023945;28;20038;-39
2022/01/08 00:25:52;;;;;;;2.70;1.80;;;2.80;99.90;;;;;;5025518;28;20033;-35
2022/01/08 00:28:18;;;;;;;4.53;2.22;;;2.80;99.90;;;;;;5020898;28;20022;-39
2022/01/08 00:30:45;;;;;;;8.95;2.00;;;2.70;99.90;;;;;;5025412;28;20072;-38
2022/01/08 00:33:10;;;;;;;8.63;2.55;;;2.70;99.90;;;;;;5027439;28;20021;-38
2022/01/08 00:35:36;;;;;;;8.05;3.08;;;2.70;99.90;;;;;;5031716;28;20041;-38
2022/01/08 00:38:03;;;;;;;2.80;1.77;;;2.70;99.90;;;;;;5027601;28;20022;-39
2022/01/08 00:40:29;;;;;;;3.17;1.98;;;2.70;99.90;;;;;;5023769;28;20481;-37
2022/01/08 00:42:55;;;;;;;6.10;1.70;;;2.70;99.90;;;;;;5028834;28;20500;-45
2022/01/08 00:45:21;;;;;;;3.05;2.03;;;2.60;99.90;;;;;;5025644;28;20061;-38
2022/01/08 00:47:46;;;;;;;1.75;1.60;;;2.60;99.90;;;;;;5025214;28;20474;-36
2022/01/08 00:50:12;;;;;;;7.00;2.08;;;2.60;99.90;;;;;;5025330;28;20515;-38
2022/01/08 00:52:39;;;;;;;6.03;2.00;;;2.60;99.90;;;;;;5025841;28;20112;-39
2022/01/08 00:55:06;;;;;;;3.80;1.63;;;2.60;99.90;;;;;;5022545;28;20528;-41
2022/01/08 00:57:32;;;;;;;8.13;1.85;;;2.60;99.90;;;;;;5032972;28;20116;-39
2022/01/08 00:59:57;;;;;;;5.85;2.20;;;2.60;99.90;;;;;;5022505;28;20446;-39
2022/01/08 01:02:23;;;;;;;11.50;2.10;;;2.60;99.90;;;;;;5028094;28;20113;-40
2022/01/08 01:04:48;;;;;;;13.40;2.42;;;2.60;99.90;;;;;;5013058;28;20038;-41
2022/01/08 01:07:15;;;;;;;6.28;2.78;;;2.60;99.90;;;;;;5025970;28;20542;-40
2022/01/08 01:09:40;;;;;;;3.15;1.60;;;2.60;99.90;;;;;;5031022;28;20025;-40
2022/01/08 01:12:06;;;;;;;9.68;2.42;;;2.50;99.90;;;;;;5029557;28;20486;-39
2022/01/08 01:14:32;;;;;;;6.80;2.13;;;2.50;99.90;;;;;;5024995;28;20587;-37
2022/01/08 01:16:58;;;;;;;3.17;2.03;;;2.50;99.90;;;;;;5020285;28;20101;-40
2022/01/08 01:19:23;;;;;;;4.40;2.28;;;2.50;99.90;;;;;;5019138;28;20029;-40
2022/01/08 01:21:51;;;;;;;7.45;2.60;;;2.40;99.90;;;;;;5032072;28;20033;-39
2022/01/08 01:24:21;;;;;;;3.88;1.73;;;2.40;99.90;;;;;;5031687;28;20029;-37
2022/01/08 01:27:18;;;;;;;12.98;2.58;;;2.40;99.90;;;;;;5030685;28;20053;-42
2022/01/08 01:48:31;;;;;;;3.90;1.60;;;2.40;99.90;;;;;;5028547;28;20393;-40
2022/01/08 01:50:57;;;;;;;8.52;2.38;;;2.40;99.90;;;;;;5017391;28;20022;-44
2022/01/08 01:53:23;;;;;;;5.45;2.03;;;2.30;99.90;;;;;;5028663;28;20026;-37
2022/01/08 01:55:48;;;;;;;7.47;1.80;;;2.30;99.90;;;;;;5035583;28;20060;-39
2022/01/08 01:58:15;;;;;;;6.28;1.70;;;2.30;99.90;;;;;;5035776;28;20021;-49
2022/01/08 02:00:47;;;;;;;6.82;1.88;;;2.30;99.90;;;;;;5022524;28;20033;-36
2022/01/08 02:03:13;;;;;;;9.07;1.90;;;2.20;99.90;;;;;;5021527;28;20041;-39
2022/01/08 02:05:39;;;;;;;4.50;1.65;;;2.20;99.90;;;;;;5032393;28;20405;-37
2022/01/08 02:08:04;;;;;;;11.50;2.50;;;2.20;99.90;;;;;;5035377;28;20029;-39
2022/01/08 02:10:30;;;;;;;4.05;1.95;;;2.20;99.90;;;;;;5016946;28;20469;-39
2022/01/08 02:12:56;;;;;;;12.15;2.53;;;2.30;99.90;;;;;;5016150;28;20465;-37
2022/01/08 02:15:21;;;;;;;3.38;1.60;;;2.20;99.90;;;;;;5017557;28;20355;-37
2022/01/08 02:17:47;;;;;;;3.20;1.63;;;2.20;99.90;;;;;;5030501;28;20037;-38
2022/01/08 02:20:13;;;;;;;12.52;1.63;;;2.20;99.90;;;;;;5032248;28;20029;-38
2022/01/08 02:22:39;;;;;;;3.13;1.55;;;2.20;99.90;;;;;;5015843;28;20532;-39
2022/01/08 02:25:05;;;;;;;4.03;1.60;;;2.20;99.90;;;;;;5028623;28;20045;-37
2022/01/08 02:27:31;;;;;;;3.67;1.80;;;2.20;99.90;;;;;;5035249;28;20063;-37
2022/01/08 02:29:57;;;;;;;1.90;1.23;;;2.20;99.90;;;;;;5034883;28;20023;-39
2022/01/08 02:32:27;;;;;;;3.63;1.42;;;2.20;99.90;;;;;;5024581;28;20136;-38
2022/01/08 02:34:53;;;;;;;14.77;1.73;;;2.20;99.90;;;;;;5014590;28;20030;-39
2022/01/08 02:37:25;;;;;;;4.28;1.73;;;2.20;99.90;;;;;;5031924;28;20481;-39
2022/01/08 02:39:50;;;;;;;5.22;1.40;;;2.10;99.90;;;;;;5026362;28;20084;-38
2022/01/08 02:42:19;;;;;;;5.00;1.33;;;2.10;99.90;;;;;;5027322;28;20432;-39
2022/01/08 02:44:46;;;;;;;3.88;1.48;;;2.10;99.90;;;;;;5020349;28;20344;-39
2022/01/08 02:47:16;;;;;;;5.40;2.08;;;2.00;99.90;;;;;;5022407;28;20025;-38
2022/01/08 02:49:42;;;;;;;4.30;1.90;;;2.10;99.90;;;;;;5026645;28;20029;-38
2022/01/08 02:52:07;;;;;;;4.22;2.22;;;2.00;99.90;;;;;;5034865;28;20032;-38
2022/01/08 02:54:33;;;;;;;3.20;1.70;;;2.10;99.90;;;;;;5033012;28;20456;-38
2022/01/08 02:56:59;;;;;;;4.63;1.50;;;2.10;99.90;;;;;;5034057;28;20030;-39
2022/01/08 02:59:25;;;;;;;9.07;1.90;;;2.10;99.90;;;;;;5034200;28;20563;-38
2022/01/08 03:01:53;;;;;;;5.28;1.75;;;2.10;99.90;;;;;;5034742;28;20034;-44
2022/01/08 03:04:19;;;;;;;3.47;1.70;;;2.10;99.90;;;;;;5035125;28;20045;-39
2022/01/08 03:06:44;;;;;;;4.47;1.92;;;2.10;99.90;;;;;;5034629;28;20543;-39
2022/01/08 03:09:10;;;;;;;8.27;1.67;;;2.10;99.90;;;;;;5034173;28;20018;-37
2022/01/08 03:11:38;;;;;;;7.88;1.65;;;2.10;99.90;;;;;;5031439;28;20068;-39
2022/01/08 03:14:04;;;;;;;12.95;1.60;;;2.10;99.90;;;;;;5033239;28;20022;-38
2022/01/08 03:16:30;;;;;;;6.40;1.45;;;2.10;99.90;;;;;;5030685;28;20025;-38
2022/01/08 03:18:55;;;;;;;5.72;1.48;;;2.10;99.90;;;;;;5025585;28;20047;-38
2022/01/08 03:21:22;;;;;;;7.70;1.75;;;2.20;99.90;;;;;;5033390;28;20095;-38
2022/01/08 03:24:01;;;;;;;4.10;1.50;;;2.20;99.90;;;;;;5028605;28;20504;-39
2022/01/08 03:26:28;;;;;;;2.95;1.27;;;2.20;99.90;;;;;;5015464;28;20422;-38
2022/01/08 03:28:55;;;;;;;5.07;1.02;;;2.30;99.90;;;;;;5022318;28;20052;-38
2022/01/08 03:31:23;;;;;;;7.90;1.35;;;2.30;99.90;;;;;;5023781;28;20038;-37
2022/01/08 03:33:50;;;;;;;10.93;1.30;;;2.30;99.90;;;;;;5021530;28;20041;-42
2022/01/08 03:36:19;;;;;;;9.55;1.75;;;2.30;99.90;;;;;;5025091;28;20280;-38
2022/01/08 03:38:45;;;;;;;12.52;1.40;;;2.30;99.90;;;;;;5027916;28;20489;-39
2022/01/08 03:41:11;;;;;;;8.40;1.17;;;2.20;99.90;;;;;;5014349;28;20037;-39
2022/01/08 03:43:36;;;;;;;5.90;1.50;;;2.20;99.90;;;;;;5023756;28;20025;-38
2022/01/08 03:46:04;;;;;;;4.80;1.00;;;2.30;99.90;;;;;;5033483;28;20033;-38
2022/01/08 03:48:43;;;;;;;5.40;1.17;;;2.30;99.90;;;;;;5033848;28;20100;-37
2022/01/08 03:51:09;;;;;;;6.90;1.25;;;2.30;99.90;;;;;;5022582;28;20651;-38
2022/01/08 03:53:35;;;;;;;1.92;1.00;;;2.30;99.90;;;;;;5013993;28;20026;-37
2022/01/08 03:56:01;;;;;;;3.33;1.40;;;2.30;99.90;;;;;;5019954;28;20366;-41
2022/01/08 03:58:27;;;;;;;4.13;1.30;;;2.30;99.90;;;;;;5022409;28;20026;-38
2022/01/08 04:00:53;;;;;;;13.52;1.58;;;2.30;99.90;;;;;;5028444;28;20500;-39
2022/01/08 04:03:19;;;;;;;2.55;1.02;;;2.30;99.90;;;;;;5031526;28;20021;-39
2022/01/08 04:05:50;;;;;;;6.00;1.33;;;2.30;99.90;;;;;;5017277;28;20095;-39
2022/01/08 04:08:18;;;;;;;7.78;0.98;;;2.30;99.90;;;;;;5033429;28;20496;-38
2022/01/08 04:10:44;;;;;;;6.22;1.70;;;2.30;99.90;;;;;;5035366;28;20028;-37
2022/01/08 04:13:14;;;;;;;3.28;1.02;;;2.20;99.90;;;;;;5050042;28;20052;-43
2022/01/08 04:15:42;;;;;;;3.25;1.20;;;2.20;99.90;;;;;;5052441;28;20469;-42
2022/01/08 04:18:09;;;;;;;10.02;1.02;;;2.20;99.90;;;;;;5037893;28;20027;-44
2022/01/08 04:20:45;;;;;;;3.45;1.08;;;2.20;99.90;;;;;;5032749;28;20072;-39
2022/01/08 04:23:10;;;;;;;3.60;1.17;;;2.20;99.90;;;;;;5036683;28;20013;-39
2022/01/08 04:25:36;;;;;;;9.20;1.60;;;2.20;99.90;;;;;;5034042;28;20551;-39
2022/01/08 04:28:02;;;;;;;5.63;1.70;;;2.20;99.90;;;;;;5038381;28;20032;-37
2022/01/08 04:30:27;;;;;;;6.07;1.60;;;2.20;99.90;;;;;;5040433;28;20023;-42
2022/01/08 04:32:53;;;;;;;3.42;1.42;;;2.20;99.90;;;;;;5045538;28;20512;-38
2022/01/08 04:35:18;;;;;;;5.05;2.28;;;2.20;99.90;;;;;;5049576;28;20025;-39
2022/01/08 04:37:44;;;;;;;7.00;1.27;;;2.20;99.90;;;;;;5041973;28;20034;-39
2022/01/08 04:40:10;;;;;;;5.15;1.10;;;2.20;99.90;;;;;;5039187;28;20034;-39
2022/01/08 04:42:35;;;;;;;6.22;1.05;;;2.10;99.90;;;;;;5035854;28;20096;-39
2022/01/08 04:45:01;;;;;;;9.23;1.38;;;2.00;99.90;;;;;;5050084;28;20029;-39
2022/01/08 04:47:27;;;;;;;6.85;1.33;;;2.10;99.90;;;;;;5045026;28;20022;-52
2022/01/08 04:49:52;;;;;;;2.67;1.25;;;2.10;99.90;;;;;;5033219;28;20508;-38
2022/01/08 04:52:18;;;;;;;10.30;1.30;;;2.10;99.90;;;;;;5031406;28;20525;-39
2022/01/08 04:54:44;;;;;;;3.40;1.27;;;2.00;99.90;;;;;;5038221;28;20044;-38
2022/01/08 04:57:09;;;;;;;8.55;1.30;;;2.10;99.90;;;;;;5032745;28;20512;-38
2022/01/08 04:59:35;;;;;;;2.75;1.20;;;2.10;99.90;;;;;;5033082;28;20088;-38
2022/01/08 05:02:01;;;;;;;2.88;1.05;;;2.00;99.90;;;;;;5036298;28;20076;-40
2022/01/08 05:04:27;;;;;;;9.25;1.63;;;2.10;99.90;;;;;;5039793;28;20100;-38
2022/01/08 05:06:53;;;;;;;3.17;1.27;;;2.10;99.90;;;;;;5051176;28;20045;-37
2022/01/08 05:09:18;;;;;;;9.68;1.50;;;2.10;99.90;;;;;;5047911;28;20048;-37
2022/01/08 05:11:44;;;;;;;4.28;1.20;;;2.20;99.90;;;;;;5039153;28;20446;-39
2022/01/08 05:14:10;;;;;;;5.45;1.17;;;2.20;99.90;;;;;;5034939;28;20083;-46
2022/01/08 05:16:36;;;;;;;6.15;1.38;;;2.20;99.90;;;;;;5047497;28;20022;-39
2022/01/08 05:19:02;;;;;;;2.90;1.15;;;2.30;99.90;;;;;;5031254;28;20044;-38
2022/01/08 05:21:31;;;;;;;1.55;0.88;;;2.20;99.90;;;;;;5043500;28;20076;-38
2022/01/08 05:23:57;;;;;;;5.53;1.10;;;2.30;99.90;;;;;;5035972;28;20444;-38
2022/01/08 05:26:25;;;;;;;5.53;1.00;;;2.30;99.90;;;;;;5033777;28;20021;-37
2022/01/08 05:28:51;;;;;;;5.88;1.95;;;2.30;99.90;;;;;;5040196;28;20029;-37
2022/01/08 05:31:21;;;;;;;3.50;1.45;;;2.30;99.90;;;;;;5035996;28;20029;-42
2022/01/08 05:33:47;;;;;;;4.68;1.00;;;2.30;99.90;;;;;;5036812;28;20107;-49
2022/01/08 05:36:12;;;;;;;8.57;1.23;;;2.40;99.90;;;;;;5045925;28;20501;-38
2022/01/08 05:38:38;;;;;;;8.35;1.73;;;2.30;99.90;;;;;;5049272;28;20057;-37
2022/01/08 05:41:04;;;;;;;8.15;1.40;;;2.30;99.90;;;;;;5046376;28;20115;-37
2022/01/08 05:43:29;;;;;;;6.50;1.70;;;2.20;99.90;;;;;;5056481;28;20051;-38
2022/01/08 05:45:56;;;;;;;4.70;1.25;;;2.30;99.90;;;;;;5036277;28;20163;-38
2022/01/08 05:48:23;;;;;;;2.35;1.30;;;2.20;99.90;;;;;;5035293;28;20508;-37
2022/01/08 05:50:49;;;;;;;3.47;1.45;;;2.20;99.90;;;;;;5044254;28;20048;-38
2022/01/08 05:53:17;;;;;;;5.05;1.35;;;2.30;99.90;;;;;;5055998;28;20029;-38
2022/01/08 05:55:42;;;;;;;9.70;1.55;;;2.30;99.90;;;;;;5044845;28;20484;-37
2022/01/08 05:58:08;;;;;;;5.63;1.40;;;2.30;99.90;;;;;;5045566;28;20030;-41
2022/01/08 06:00:33;;;;;;;3.95;1.33;;;2.30;99.90;;;;;;5040261;28;20515;-38
2022/01/08 06:02:59;;;;;;;4.50;1.77;;;2.30;99.90;;;;;;5054557;28;20059;-37
2022/01/08 06:05:25;;;;;;;3.95;1.70;;;2.30;99.90;;;;;;5039448;28;20048;-38
2022/01/08 06:07:51;;;;;;;5.03;1.73;;;2.40;99.90;;;;;;5035754;28;20029;-38
2022/01/08 06:10:16;;;;;;;9.32;2.30;;;2.40;99.90;;;;;;5050841;28;20292;-37
2022/01/08 06:12:42;;;;;;;2.80;1.50;;;2.50;99.90;;;;;;5035863;28;20108;-75
2022/01/08 06:15:08;;;;;;;6.43;2.38;;;2.50;99.90;;;;;;5035477;28;20025;-43
2022/01/08 06:17:34;;;;;;;4.95;1.55;;;2.50;99.90;;;;;;5036207;28;20515;-43
2022/01/08 06:19:59;;;;;;;2.90;1.83;;;2.50;99.90;;;;;;5041909;28;20025;-37
2022/01/08 06:22:25;;;;;;;5.28;2.05;;;2.50;99.90;;;;;;5039693;28;20025;-37
2022/01/08 06:24:51;;;;;;;5.40;2.17;;;2.50;99.90;;;;;;5042370;28;20033;-39
2022/01/08 06:27:16;;;;;;;4.68;1.73;;;2.60;99.90;;;;;;5044428;28;20092;-39
2022/01/08 06:29:42;;;;;;;7.28;1.85;;;2.60;99.90;;;;;;5044664;28;20037;-37
2022/01/08 06:32:08;;;;;;;9.77;2.38;;;2.60;99.90;;;;;;5039328;28;20401;-37
2022/01/08 06:34:33;;;;;;;4.53;2.17;;;2.50;99.90;;;;;;5034150;28;20063;-38
2022/01/08 06:36:59;;;;;;;5.63;2.35;;;2.60;99.90;;;;;;5039421;28;20034;-37
2022/01/08 06:39:25;;;;;;;8.50;1.85;;;2.60;99.90;;;;;;5041944;28;20025;-38
2022/01/08 06:41:50;;;;;;;7.03;2.50;;;2.70;99.90;;;;;;5041659;28;20108;-39
2022/01/08 06:44:16;;;;;;;4.35;1.65;;;2.70;99.90;;;;;;5041298;28;20021;-39
2022/01/08 06:46:41;;;;;;;7.32;1.75;;;2.70;99.90;;;;;;5044574;28;20112;-42
2022/01/08 06:49:08;;;;;;;12.45;2.67;;;2.60;99.90;;;;;;5035397;28;20414;-40
2022/01/08 06:51:34;;;;;;;9.10;3.03;;;2.60;99.90;;;;;;5044252;28;20029;-38
2022/01/08 06:53:59;;;;;;;6.45;1.90;;;2.70;99.90;;;;;;5045170;28;20037;-36
2022/01/08 06:56:25;;;;;;;6.15;1.90;;;2.70;99.90;;;;;;5033670;28;20140;-37
2022/01/08 06:58:51;;;;;;;5.65;1.90;;;2.70;99.90;;;;;;5051197;28;20090;-39
2022/01/08 07:01:16;;;;;;;6.85;2.40;;;2.70;99.90;;;;;;5046220;28;20022;-45
2022/01/08 07:03:42;;;;;;;4.25;1.90;;;2.70;99.90;;;;;;5043233;28;20115;-38
2022/01/08 07:06:08;;;;;;;11.98;1.90;;;2.70;99.90;;;;;;5043112;28;20042;-46
2022/01/08 07:08:33;;;;;;;3.38;1.42;;;2.70;99.90;;;;;;5052220;28;20025;-37
2022/01/08 07:10:59;;;;;;;7.03;2.08;;;2.80;99.90;;;;;;5035343;28;20025;-36
2022/01/08 07:13:24;;;;;;;6.65;1.70;;;2.80;99.90;;;;;;5035540;28;20160;-37
2022/01/08 07:15:50;;;;;;;11.65;1.73;;;2.80;99.90;;;;;;5035389;28;20029;-37
2022/01/08 07:18:16;;;;;;;4.93;1.75;;;2.80;99.90;;;;;;5034312;28;20033;-36
2022/01/08 07:20:41;;;;;;;6.72;1.30;;;2.90;99.90;;;;;;5045719;28;20036;-37
2022/01/08 07:23:07;;;;;;;3.20;1.67;;;2.90;99.90;;;;;;5039297;28;20599;-38
2022/01/08 07:25:32;;;;;;;7.93;2.03;;;2.90;99.90;;;;;;5018230;28;20029;-41
2022/01/08 07:27:58;;;;;;;5.75;1.77;;;2.80;99.90;;;;;;5033589;28;20419;-37
2022/01/08 07:30:24;;;;;;;5.68;1.60;;;2.80;99.90;;;;;;5032630;28;20085;-37
2022/01/08 07:32:51;;;;;;;6.00;1.75;;;2.80;99.90;;;;;;5016415;28;20482;-38
2022/01/08 07:35:21;;;;;;;8.85;2.15;;;2.80;99.90;;;;;;5031183;28;20125;-37
2022/01/08 07:37:48;;;;;;;6.63;1.50;;;2.80;99.90;;;;;;5033475;28;20545;-38
2022/01/08 07:40:14;;;;;;;15.18;2.45;;;2.70;99.90;;;;;;5022046;28;20028;-38
2022/01/08 07:42:40;;;;;;;3.08;1.00;;;2.80;99.90;;;;;;5014600;28;20061;-36
2022/01/08 07:45:08;;;;;;;1.75;1.48;;;2.80;99.90;;;;;;5016358;28;20033;-59
2022/01/08 07:47:33;;;;;;;5.45;1.55;;;2.90;99.90;;;;;;5032201;28;20055;-37
2022/01/08 07:49:59;;;;;;;8.93;1.83;;;2.90;99.90;;;;;;5033676;28;20033;-38
2022/01/08 07:52:25;;;;;;;3.42;1.58;;;3.00;99.90;;;;;;5017943;28;20528;-38
2022/01/08 07:54:50;;;;;;;6.20;1.95;;;3.00;99.90;;;;;;5015321;28;20108;-38
2022/01/08 07:57:16;;;;;;;5.25;1.90;;;3.10;99.90;;;;;;5027337;28;20026;-36
2022/01/08 07:59:42;;;;;;;4.05;1.98;;;3.10;99.90;;;;;;5014436;28;20029;-38
2022/01/08 08:02:09;;;;;;;8.88;2.67;;;3.20;99.90;;;;;;5041635;28;20021;-46
2022/01/08 08:04:34;;;;;;;6.22;2.95;;;3.20;99.90;;;;;;5038145;28;20053;-36
2022/01/08 08:07:00;;;;;;;9.95;2.63;;;3.20;99.90;;;;;;5034683;28;20139;-37
2022/01/08 08:09:26;;;;;;;9.07;2.85;;;3.20;99.90;;;;;;5033759;28;20082;-39
2022/01/08 08:11:51;;;;;;;4.85;2.78;;;3.20;99.90;;;;;;5043998;28;20033;-38
2022/01/08 08:14:17;;;;;;;13.77;2.92;;;3.20;99.90;;;;;;5040125;28;20072;-38
2022/01/08 08:16:42;;;;;;;7.82;2.75;;;3.30;99.90;;;;;;5041971;28;20542;-38
2022/01/08 08:19:08;;;;;;;7.10;2.30;;;3.30;99.90;;;;;;5034596;28;20485;-37
2022/01/08 08:21:34;;;;;;;7.88;2.92;;;3.30;99.90;;;;;;5043986;28;20100;-39
2022/01/08 08:24:00;;;;;;;6.57;3.08;;;3.30;99.90;;;;;;5032916;28;20024;-38
2022/01/08 08:26:26;;;;;;;10.70;2.78;;;3.40;99.90;;;;;;5033377;28;20509;-37
2022/01/08 08:28:52;;;;;;;4.63;2.78;;;3.40;99.90;;;;;;5032047;28;20033;-47
2022/01/08 08:31:17;;;;;;;7.40;3.67;;;3.40;99.90;;;;;;5037990;28;20078;-38
2022/01/08 08:33:43;;;;;;;9.02;3.55;;;3.40;99.90;;;;;;5049796;28;20124;-38
2022/01/08 08:36:09;;;;;;;6.97;3.63;;;3.50;99.90;;;;;;5032171;28;20491;-37
2022/01/08 08:38:34;;;;;;;12.07;4.63;;;3.50;99.90;;;;;;5034694;28;20473;-41
2022/01/08 08:41:00;;;;;;;9.70;3.72;;;3.50;99.90;;;;;;5039345;28;20488;-38
2022/01/08 08:43:26;;;;;;;8.65;4.65;;;3.50;99.90;;;;;;5038331;28;20024;-38
2022/01/08 08:46:10;;;;;;;10.60;5.55;;;3.50;99.90;;;;;;5033104;28;20489;-38
2022/01/08 08:48:35;;;;;;;8.35;4.18;;;3.50;99.90;;;;;;5036573;28;20488;-37
2022/01/08 08:51:01;;;;;;;15.13;4.47;;;3.50;99.90;;;;;;5042229;28;20040;-37
2022/01/08 08:53:27;;;;;;;12.25;4.05;;;3.50;99.90;;;;;;5043818;28;20124;-38
2022/01/08 08:55:52;;;;;;;15.00;4.35;;;3.60;99.90;;;;;;5045053;28;20401;-37
2022/01/08 08:58:18;;;;;;;11.02;4.00;;;3.60;99.90;;;;;;5032999;28;20374;-39
2022/01/08 09:00:44;;;;;;;10.48;3.85;;;3.60;99.90;;;;;;5045382;28;20032;-41
2022/01/08 09:03:09;;;;;;;18.77;5.88;;;3.60;99.90;;;;;;5035309;28;20531;-42
2022/01/08 09:05:35;;;;;;;15.30;5.05;;;3.60;99.90;;;;;;5040751;28;20061;-38
2022/01/08 09:08:01;;;;;;;10.68;5.07;;;3.60;99.90;;;;;;5038555;28;20044;-36
2022/01/08 09:10:27;;;;;;;16.25;4.95;;;3.50;99.90;;;;;;5056517;28;20473;-37
2022/01/08 09:12:54;;;;;;;18.65;5.63;;;3.50;99.90;;;;;;5040425;28;20033;-38
2022/01/08 09:15:25;;;;;;;14.80;4.93;;;3.50;99.90;;;;;;5040814;28;20029;-39
2022/01/08 09:17:56;;;;;;;17.85;4.93;;;3.50;99.90;;;;;;5046925;28;20025;-39
2022/01/08 09:20:22;;;;;;;13.30;5.07;;;3.50;99.90;;;;;;5041905;28;20031;-39
2022/01/08 09:22:48;;;;;;;12.30;5.45;;;3.60;99.90;;;;;;5055131;28;20025;-38
2022/01/08 09:25:14;;;;;;;13.60;4.22;;;3.60;99.90;;;;;;5042204;28;20515;-38
2022/01/08 09:27:39;;;;;;;8.45;4.78;;;3.60;99.90;;;;;;5041241;28;20021;-39
2022/01/08 09:30:06;;;;;;;19.67;5.70;;;3.60;99.90;;;;;;5051052;28;20036;-39
2022/01/08 09:32:33;;;;;;;16.20;5.50;;;3.60;99.90;;;;;;5038749;28;20040;-37
2022/01/08 09:34:58;;;;;;;15.60;5.40;;;3.70;99.90;;;;;;5024001;28;20037;-37
2022/01/08 09:37:24;;;;;;;7.20;4.63;;;3.70;99.90;;;;;;5019783;28;20018;-38
2022/01/08 09:39:50;;;;;;;9.80;5.18;;;3.70;99.90;;;;;;5023330;28;20036;-38
2022/01/08 09:42:16;;;;;;;21.13;5.63;;;3.70;99.90;;;;;;5033799;28;20037;-38
2022/01/08 09:44:44;;;;;;;12.45;6.28;;;3.80;99.90;;;;;;5036873;28;20536;-38
2022/01/08 09:47:14;;;;;;;14.23;5.35;;;3.80;99.90;;;;;;5037913;28;20023;-38
2022/01/08 09:49:40;;;;;;;17.77;5.97;;;3.90;99.90;;;;;;5036696;28;20017;-38
2022/01/08 09:52:07;;;;;;;14.75;5.95;;;3.90;99.90;;;;;;5036021;28;20495;-39
2022/01/08 09:54:33;;;;;;;11.40;6.13;;;4.00;99.90;;;;;;5020900;28;20481;-39
2022/01/08 09:56:59;;;;;;;14.77;6.53;;;3.90;99.90;;;;;;5019320;28;20429;-39
2022/01/08 09:59:28;;;;;;;9.25;5.50;;;4.00;99.90;;;;;;5024720;28;20109;-39
2022/01/08 10:02:03;;;;;;;12.40;6.30;;;4.10;99.90;;;;;;5021422;28;20488;-38
2022/01/08 10:04:35;;;;;;;15.23;5.25;;;4.00;99.90;;;;;;5030918;28;20460;-36
2022/01/08 10:07:24;;;;;;;11.27;6.50;;;4.00;99.90;;;;;;5020511;28;20441;-37
2022/01/08 10:10:15;;;;;;;12.32;6.43;;;4.00;99.90;;;;;;5019565;28;20111;-38
2022/01/08 10:12:50;;;;;;;14.15;6.22;;;4.00;99.90;;;;;;5020946;28;20034;-38
2022/01/08 10:18:33;;;;;;;18.38;6.85;;;3.90;99.90;;;;;;5030442;28;20060;-40
2022/01/08 10:21:13;;;;;;;15.27;6.10;;;4.00;99.90;;;;;;5035333;28;20366;-39
2022/01/08 10:23:43;;;;;;;14.65;6.68;;;4.00;99.90;;;;;;5018631;28;20026;-36
2022/01/08 10:26:10;;;;;;;14.43;5.88;;;3.90;99.90;;;;;;5029565;28;20033;-37
2022/01/08 10:28:36;;;;;;;14.20;6.60;;;4.00;99.90;;;;;;5028532;28;20393;-38
2022/01/08 10:31:13;;;;;;;14.07;6.35;;;4.00;99.90;;;;;;5015692;28;20044;-39
2022/01/08 10:33:40;;;;;;;8.20;4.95;;;3.90;99.90;;;;;;5019399;28;20060;-39
2022/01/08 10:36:06;;;;;;;16.92;7.35;;;4.00;99.90;;;;;;5024132;28;20527;-37
2022/01/08 10:38:32;;;;;;;12.30;6.10;;;4.00;99.90;;;;;;5031452;28;20087;-38
2022/01/08 10:41:00;;;;;;;20.15;6.38;;;4.10;99.90;;;;;;5029304;28;20437;-38
2022/01/08 10:43:31;;;;;;;14.70;5.88;;;4.10;99.90;;;;;;5015669;28;20021;-39
2022/01/08 10:46:10;;;;;;;16.25;6.80;;;4.20;99.90;;;;;;5021620;28;20071;-39
2022/01/08 10:48:37;;;;;;;13.70;6.72;;;4.20;99.90;;;;;;5019232;28;20488;-38
2022/01/08 10:51:13;;;;;;;26.25;8.52;;;4.30;99.90;;;;;;5024982;28;20030;-38
2022/01/08 10:54:09;;;;;;;15.25;7.70;;;4.40;99.90;;;;;;5023340;28;20474;-36
2022/01/08 10:56:51;;;;;;;16.30;8.55;;;4.50;99.90;;;;;;5022977;28;20049;-39
2022/01/08 10:59:23;;;;;;;13.65;7.45;;;4.50;99.90;;;;;;5022717;28;20030;-39
2022/01/08 11:01:50;;;;;;;14.38;7.88;;;4.50;99.90;;;;;;5022144;28;20532;-38
2022/01/08 11:04:34;;;;;;;14.07;6.85;;;4.50;99.90;;;;;;5033367;28;20485;-37
2022/01/08 11:07:03;;;;;;;12.05;5.85;;;4.50;99.90;;;;;;5014987;28;20104;-37
2022/01/08 11:09:30;;;;;;;14.43;6.13;;;4.50;99.90;;;;;;5016653;28;20113;-39
2022/01/08 11:11:59;;;;;;;14.00;5.85;;;4.50;99.90;;;;;;5022451;28;20022;-39
2022/01/08 11:17:45;;;;;;;11.02;5.68;;;4.50;99.90;;;;;;5022240;28;20121;-38
2022/01/08 11:20:16;;;;;;;16.13;5.60;;;4.60;99.90;;;;;;5026103;28;20493;-39
2022/01/08 11:22:50;;;;;;;11.30;5.50;;;4.60;99.90;;;;;;5033466;28;20540;-38
2022/01/08 11:25:36;;;;;;;12.27;5.35;;;4.70;99.90;;;;;;5027831;28;20025;-38
2022/01/08 11:28:12;;;;;;;12.73;5.55;;;4.80;99.90;;;;;;5043516;28;20108;-38
2022/01/08 11:30:39;;;;;;;14.98;6.45;;;4.90;99.90;;;;;;5038183;28;20116;-39
2022/01/08 11:33:13;;;;;;;16.60;6.30;;;5.00;99.90;;;;;;5033663;28;20465;-40
2022/01/08 11:35:39;;;;;;;10.48;5.47;;;5.00;99.90;;;;;;5048252;28;20017;-39
2022/01/08 11:38:07;;;;;;;13.82;4.90;;;5.00;99.90;;;;;;5033477;28;20021;-39
2022/01/08 11:40:39;;;;;;;10.85;4.93;;;5.10;99.90;;;;;;5033139;28;20037;-37
2022/01/08 11:43:07;;;;;;;10.43;5.60;;;5.10;99.90;;;;;;5042323;28;20469;-45
2022/01/08 11:46:00;;;;;;;10.70;5.43;;;5.10;99.90;;;;;;5052298;28;20476;-39
2022/01/08 11:48:31;;;;;;;14.05;4.30;;;5.10;99.90;;;;;;5032301;28;20040;-38
2022/01/08 11:50:59;;;;;;;15.85;6.22;;;5.10;99.90;;;;;;5034154;28;20029;-39
2022/01/08 11:53:28;;;;;;;15.18;5.97;;;5.10;99.90;;;;;;5037852;28;20499;-45
2022/01/08 11:56:03;;;;;;;11.15;4.60;;;5.20;99.90;;;;;;5039092;28;20394;-40
2022/01/08 11:58:31;;;;;;;9.05;4.75;;;5.10;99.90;;;;;;5051342;28;20033;-36
2022/01/08 12:00:58;;;;;;;16.73;5.03;;;5.00;99.90;;;;;;5046096;28;20462;-38
2022/01/08 12:03:36;;;;;;;11.95;5.82;;;5.00;99.90;;;;;;5033261;28;20026;-39
2022/01/08 12:06:29;;;;;;;19.50;5.57;;;5.00;99.90;;;;;;5033416;28;20037;-39
2022/01/08 12:09:07;;;;;;;12.75;4.85;;;4.90;99.90;;;;;;5013828;28;20026;-39
2022/01/08 12:11:36;;;;;;;10.35;4.78;;;5.00;99.90;;;;;;5027439;28;20055;-40
2022/01/08 12:14:12;;;;;;;8.70;4.70;;;5.00;99.90;;;;;;5031413;28;20036;-63
2022/01/08 12:16:40;;;;;;;12.48;4.13;;;5.00;99.90;;;;;;5026711;28;20033;-39
2022/01/08 12:19:08;;;;;;;21.60;4.97;;;4.90;99.90;;;;;;5037265;28;20167;-58
2022/01/08 12:21:40;;;;;;;13.93;4.20;;;4.90;99.90;;;;;;5024664;28;20030;-38
2022/01/08 12:24:28;;;;;;;13.75;4.45;;;4.90;99.90;;;;;;5020332;28;20014;-38
2022/01/08 12:26:55;;;;;;;13.18;4.82;;;5.00;99.90;;;;;;5019723;28;20026;-39
2022/01/08 12:29:37;;;;;;;11.20;4.80;;;4.90;99.90;;;;;;5031521;28;20113;-42
2022/01/08 12:32:39;;;;;;;12.00;4.03;;;4.90;99.90;;;;;;5032691;28;20477;-38
2022/01/08 12:35:37;;;;;;;13.27;3.70;;;4.80;99.90;;;;;;5022547;28;20028;-38
2022/01/08 12:38:06;;;;;;;15.20;5.07;;;4.80;99.90;;;;;;5027983;28;20502;-37
2022/01/08 12:40:45;;;;;;;8.93;3.85;;;4.80;99.90;;;;;;5024065;28;20025;-39
2022/01/08 12:43:19;;;;;;;13.57;4.72;;;4.80;99.90;;;;;;5020253;28;20304;-38
2022/01/08 12:45:48;;;;;;;10.30;4.13;;;4.70;99.90;;;;;;5016897;28;20030;-39
2022/01/08 12:48:15;;;;;;;10.90;3.95;;;4.70;99.90;;;;;;5031941;28;20025;-38
2022/01/08 12:50:55;;;;;;;12.77;3.50;;;4.70;99.90;;;;;;5030271;28;20037;-42
2022/01/08 12:53:26;;;;;;;10.32;3.65;;;4.80;99.90;;;;;;5030020;28;20025;-39
2022/01/08 12:55:55;;;;;;;5.13;3.20;;;4.80;99.90;;;;;;5021710;28;20025;-39
2022/01/08 12:58:34;;;;;;;15.00;3.15;;;4.70;99.90;;;;;;5020125;28;20373;-38
2022/01/08 13:01:01;;;;;;;6.93;3.10;;;4.80;99.90;;;;;;5012921;28;20030;-38
2022/01/08 13:03:29;;;;;;;8.45;2.45;;;4.70;99.90;;;;;;5016032;28;20034;-39
2022/01/08 13:05:57;;;;;;;8.90;2.22;;;4.70;99.90;;;;;;5019569;28;20477;-39
2022/01/08 13:08:24;;;;;;;5.45;2.80;;;4.60;99.90;;;;;;5025100;28;20495;-38
2022/01/08 13:10:57;;;;;;;6.97;3.35;;;4.60;99.90;;;;;;5024077;28;20029;-38
2022/01/08 13:13:24;;;;;;;5.22;3.90;;;4.60;99.90;;;;;;5031350;28;20029;-37
2022/01/08 13:15:51;;;;;;;8.13;3.65;;;4.50;99.90;;;;;;5032691;28;20029;-39
2022/01/08 13:18:23;;;;;;;7.43;2.40;;;4.50;99.90;;;;;;5026751;28;20485;-39
2022/01/08 13:21:04;;;;;;;11.50;3.03;;;4.50;99.90;;;;;;5032317;28;20036;-39
2022/01/08 13:23:30;;;;;;;6.50;3.10;;;4.40;99.90;;;;;;5031517;28;20564;-38